Domov               UVHVVR             MKGP            O straneh              
ZDRAVSTVENO VARSTVO RASTLIN
  MREŽA AGROMET. POSTAJ
 ► PROGNOSTIČNA OBVESTILA
AGROMETEOROLOŠKI PODATKI -
ARSO
OBVLADOVANJE TVEGANJ ZARADI
NEUGODNIH VREMENSKIH RAZMER
  ► NARAVNE NESREČE
  ► SUŠA/MOČA
  ► NAMAKANJE
  ► ŽLED (gozdarstvo)
KARTOGRAFSKI PRIKAZI
SPLETNE POVEZAVE
PROJEKTI IN PUBLIKACIJE

AGROMETEOROLOŠKA MREŽA: VREMENSKE POSTAJE IN FENOLOŠKA OPAZOVANJA

Pregled podatkov za lokacijo Purisima, meteorološka postaja 863702

Pregled senzorjev na lokaciji

ID Ime Zadnja
vrednost
Datum
zadnje
spremembe
Tip
senzorja
4192 Omočenost lista (U) 0 U 25.3.2019 00:45 A730WET
4193 Padavine (mm) 0 mm 25.3.2019 00:45 Rain-O-Matic
4191 Relativna vlaga 2 m (% RH) 60,6 % RH 25.3.2019 00:45 50YA
4190 Temperatura 2 m (°C) 9,85 °C 25.3.2019 00:44 50YA

Pregled podatkov zadnjih 24 ur

Zap.
št.
Datum in čas Purisima
Omočenost
lista
Padavine Relativna
vlaga
2
m
Temperatura
2
m
1 25.3.2019 00:00
2 24.3.2019 23:30 0 0 58,9 10,4
3 24.3.2019 23:00 0 0 60,5 10,2
4 24.3.2019 22:30 0 0 60 10,1
5 24.3.2019 22:00 0 0 59,8 10
6 24.3.2019 21:30 0 0 60,5 9,8
7 24.3.2019 21:00 0 0 56,8 10,9
8 24.3.2019 20:30 0 0 56,5 11,1
9 24.3.2019 20:00 0 0 56,2 11,4
10 24.3.2019 19:30 0 0 53,5 12,3
11 24.3.2019 19:00 0 0 49,9 13,7
12 24.3.2019 18:30 0 0 42 16,6
13 24.3.2019 18:00 0 0 35 19,3
14 24.3.2019 17:30 0 0 33 20,4
15 24.3.2019 17:00 0 0 33,4 20,9
16 24.3.2019 16:30 0 0 31,9 21,2
17 24.3.2019 16:00 0 0 33,2 21,1
18 24.3.2019 15:30 0 0 33 21,1
19 24.3.2019 15:00 0 0 33,1 21,3
20 24.3.2019 14:30 0 0 34,4 20,8
21 24.3.2019 14:00 0 0 33,3 21,4
22 24.3.2019 13:30 0 0 31,8 21,5
23 24.3.2019 13:00 0 0 31,5 21,6
24 24.3.2019 12:30 0 0 32,6 21,4
25 24.3.2019 12:00 0 0 32,6 21,5
26 24.3.2019 11:30 0 0 31,7 21,3
27 24.3.2019 11:00 0 0 31,1 21,3
28 24.3.2019 10:30 0 0 30,3 21,5
29 24.3.2019 10:00 0 0 30,8 21,3
30 24.3.2019 09:30 0 0 33,2 20,5
31 24.3.2019 09:00 0 0 33,9 20,5
32 24.3.2019 08:30 0 0 38,6 17,6
33 24.3.2019 08:00 0 0 43,1 16,4
34 24.3.2019 07:30 0 0 48,5 13,4
35 24.3.2019 07:00 0 0 43,7 14
36 24.3.2019 06:30 0 0 41 14,7
37 24.3.2019 06:00 0 0 42,1 14,2
38 24.3.2019 05:30 0 0 51,1 11,5
39 24.3.2019 05:00 0 0 59,9 9,1
40 24.3.2019 04:30 0 0 41,8 14,7
41 24.3.2019 04:00 0 0 42,2 14,7
42 24.3.2019 03:30 0 0 49,6 12,3
43 24.3.2019 03:00 0 0 43,6 14,5
44 24.3.2019 02:30 0 0 42,6 15
45 24.3.2019 02:00 0 0 41,4 15,5
46 24.3.2019 01:30 0 0 40,7 15,7
47 24.3.2019 01:00 0 0 40,4 15,6
48 24.3.2019 00:30 0 0 40,1 15,7
© 2011 Ministrstvo za kmetijstvo, gozdarstvo in prehrano. Vse pravice pridržane.